sensor_id;sensor_type;location;lat;lon;timestamp;temperature;humidity
22682;DHT22;11508;50.856;4.380;2023-01-01T00:01:44;15.90;1.00
22682;DHT22;11508;50.856;4.380;2023-01-01T00:04:13;15.90;1.00
22682;DHT22;11508;50.856;4.380;2023-01-01T00:06:39;16.00;1.00
22682;DHT22;11508;50.856;4.380;2023-01-01T00:09:05;15.90;1.00
22682;DHT22;11508;50.856;4.380;2023-01-01T00:11:49;15.90;1.00
22682;DHT22;11508;50.856;4.380;2023-01-01T00:14:15;15.80;1.00
22682;DHT22;11508;50.856;4.380;2023-01-01T00:16:40;15.80;1.00
22682;DHT22;11508;50.856;4.380;2023-01-01T00:19:06;15.80;1.00
22682;DHT22;11508;50.856;4.380;2023-01-01T00:21:32;15.70;1.00
22682;DHT22;11508;50.856;4.380;2023-01-01T00:23:58;15.70;1.00
22682;DHT22;11508;50.856;4.380;2023-01-01T00:26:23;15.70;1.00
22682;DHT22;11508;50.856;4.380;2023-01-01T00:28:49;15.70;8.40
22682;DHT22;11508;50.856;4.380;2023-01-01T00:31:18;15.70;27.60
22682;DHT22;11508;50.856;4.380;2023-01-01T00:33:45;15.70;1.00
22682;DHT22;11508;50.856;4.380;2023-01-01T00:36:14;15.60;58.00
22682;DHT22;11508;50.856;4.380;2023-01-01T00:38:41;15.60;99.90
22682;DHT22;11508;50.856;4.380;2023-01-01T00:41:07;15.60;99.90
22682;DHT22;11508;50.856;4.380;2023-01-01T00:43:33;15.60;99.90
22682;DHT22;11508;50.856;4.380;2023-01-01T00:45:59;15.60;99.90
22682;DHT22;11508;50.856;4.380;2023-01-01T00:48:25;15.60;79.90
22682;DHT22;11508;50.856;4.380;2023-01-01T00:50:51;15.60;44.70
22682;DHT22;11508;50.856;4.380;2023-01-01T00:53:18;15.50;82.70
22682;DHT22;11508;50.856;4.380;2023-01-01T00:55:44;15.50;48.90
22682;DHT22;11508;50.856;4.380;2023-01-01T00:58:10;15.50;40.10
22682;DHT22;11508;50.856;4.380;2023-01-01T01:00:36;15.50;28.40
22682;DHT22;11508;50.856;4.380;2023-01-01T01:03:02;15.50;99.90
22682;DHT22;11508;50.856;4.380;2023-01-01T01:05:28;15.50;75.20
22682;DHT22;11508;50.856;4.380;2023-01-01T01:07:54;15.50;99.90
22682;DHT22;11508;50.856;4.380;2023-01-01T01:10:20;15.50;99.90
22682;DHT22;11508;50.856;4.380;2023-01-01T01:12:46;15.50;99.90
22682;DHT22;11508;50.856;4.380;2023-01-01T01:15:13;15.50;20.90
22682;DHT22;11508;50.856;4.380;2023-01-01T01:17:40;15.40;99.90
22682;DHT22;11508;50.856;4.380;2023-01-01T01:20:06;15.50;75.60
22682;DHT22;11508;50.856;4.380;2023-01-01T01:22:32;15.40;56.70
22682;DHT22;11508;50.856;4.380;2023-01-01T01:25:01;15.40;99.90
22682;DHT22;11508;50.856;4.380;2023-01-01T01:27:27;15.40;78.10
22682;DHT22;11508;50.856;4.380;2023-01-01T01:29:53;15.40;59.00
22682;DHT22;11508;50.856;4.380;2023-01-01T01:32:19;15.30;1.00
22682;DHT22;11508;50.856;4.380;2023-01-01T01:34:45;15.40;99.90
22682;DHT22;11508;50.856;4.380;2023-01-01T01:37:11;15.40;99.90
22682;DHT22;11508;50.856;4.380;2023-01-01T01:39:37;15.40;1.00
22682;DHT22;11508;50.856;4.380;2023-01-01T01:42:04;15.40;1.00
22682;DHT22;11508;50.856;4.380;2023-01-01T01:50:36;15.50;1.00
22682;DHT22;11508;50.856;4.380;2023-01-01T01:53:10;15.50;61.30
22682;DHT22;11508;50.856;4.380;2023-01-01T01:55:43;15.50;32.40
22682;DHT22;11508;50.856;4.380;2023-01-01T01:58:10;15.50;17.90
22682;DHT22;11508;50.856;4.380;2023-01-01T02:00:36;15.40;99.90
22682;DHT22;11508;50.856;4.380;2023-01-01T02:03:08;15.40;99.90
22682;DHT22;11508;50.856;4.380;2023-01-01T02:05:34;15.50;99.90
22682;DHT22;11508;50.856;4.380;2023-01-01T02:08:02;15.50;99.90
22682;DHT22;11508;50.856;4.380;2023-01-01T02:10:29;15.50;99.90
22682;DHT22;11508;50.856;4.380;2023-01-01T02:12:55;15.40;99.90
22682;DHT22;11508;50.856;4.380;2023-01-01T02:15:26;15.40;1.00
22682;DHT22;11508;50.856;4.380;2023-01-01T02:23:52;15.40;99.90
22682;DHT22;11508;50.856;4.380;2023-01-01T02:31:13;15.20;99.90
22682;DHT22;11508;50.856;4.380;2023-01-01T02:33:42;15.20;1.00
22682;DHT22;11508;50.856;4.380;2023-01-01T02:36:10;15.20;1.00
22682;DHT22;11508;50.856;4.380;2023-01-01T02:38:43;15.10;1.00
22682;DHT22;11508;50.856;4.380;2023-01-01T02:41:13;15.10;1.00
22682;DHT22;11508;50.856;4.380;2023-01-01T02:43:41;15.10;59.10
22682;DHT22;11508;50.856;4.380;2023-01-01T02:46:08;15.10;19.40
22682;DHT22;11508;50.856;4.380;2023-01-01T02:48:45;15.00;48.20
22682;DHT22;11508;50.856;4.380;2023-01-01T02:51:41;15.10;99.90
22682;DHT22;11508;50.856;4.380;2023-01-01T03:05:18;14.90;99.90
22682;DHT22;11508;50.856;4.380;2023-01-01T03:10:21;14.90;1.00
22682;DHT22;11508;50.856;4.380;2023-01-01T03:15:58;14.90;1.00
22682;DHT22;11508;50.856;4.380;2023-01-01T03:21:01;14.90;45.70
22682;DHT22;11508;50.856;4.380;2023-01-01T03:23:34;14.90;82.20
22682;DHT22;11508;50.856;4.380;2023-01-01T03:26:03;14.90;99.90
22682;DHT22;11508;50.856;4.380;2023-01-01T03:28:46;14.90;99.90
22682;DHT22;11508;50.856;4.380;2023-01-01T03:31:16;14.80;99.90
22682;DHT22;11508;50.856;4.380;2023-01-01T03:33:46;14.80;99.90
22682;DHT22;11508;50.856;4.380;2023-01-01T03:36:36;14.70;99.90
22682;DHT22;11508;50.856;4.380;2023-01-01T03:39:11;14.60;1.00
22682;DHT22;11508;50.856;4.380;2023-01-01T03:41:49;14.60;99.90
22682;DHT22;11508;50.856;4.380;2023-01-01T03:44:27;14.40;99.90
22682;DHT22;11508;50.856;4.380;2023-01-01T03:46:55;14.30;99.90
22682;DHT22;11508;50.856;4.380;2023-01-01T03:49:21;14.20;99.90
22682;DHT22;11508;50.856;4.380;2023-01-01T03:52:14;14.30;99.90
22682;DHT22;11508;50.856;4.380;2023-01-01T04:00:22;14.20;99.90
22682;DHT22;11508;50.856;4.380;2023-01-01T04:03:08;14.20;99.90
22682;DHT22;11508;50.856;4.380;2023-01-01T04:05:40;14.30;99.90
22682;DHT22;11508;50.856;4.380;2023-01-01T04:08:07;14.30;99.90
22682;DHT22;11508;50.856;4.380;2023-01-01T04:10:36;14.20;99.90
22682;DHT22;11508;50.856;4.380;2023-01-01T04:13:05;14.20;99.90
22682;DHT22;11508;50.856;4.380;2023-01-01T04:15:31;14.20;99.90
22682;DHT22;11508;50.856;4.380;2023-01-01T04:18:00;14.30;99.90
22682;DHT22;11508;50.856;4.380;2023-01-01T04:20:26;14.30;99.90
22682;DHT22;11508;50.856;4.380;2023-01-01T04:22:55;14.30;99.90
22682;DHT22;11508;50.856;4.380;2023-01-01T04:25:21;14.30;99.90
22682;DHT22;11508;50.856;4.380;2023-01-01T04:27:47;14.40;99.90
22682;DHT22;11508;50.856;4.380;2023-01-01T04:30:13;14.40;99.90
22682;DHT22;11508;50.856;4.380;2023-01-01T04:32:40;14.40;99.90
22682;DHT22;11508;50.856;4.380;2023-01-01T04:35:07;14.30;99.90
22682;DHT22;11508;50.856;4.380;2023-01-01T04:37:38;14.30;99.90
22682;DHT22;11508;50.856;4.380;2023-01-01T04:40:05;14.30;99.90
22682;DHT22;11508;50.856;4.380;2023-01-01T04:42:31;14.30;99.90
22682;DHT22;11508;50.856;4.380;2023-01-01T04:44:57;14.40;99.90
22682;DHT22;11508;50.856;4.380;2023-01-01T04:47:23;14.30;99.90
22682;DHT22;11508;50.856;4.380;2023-01-01T04:49:48;14.30;99.90
22682;DHT22;11508;50.856;4.380;2023-01-01T04:52:14;14.30;99.90
22682;DHT22;11508;50.856;4.380;2023-01-01T04:54:40;14.40;99.90
22682;DHT22;11508;50.856;4.380;2023-01-01T04:57:05;14.40;99.90
22682;DHT22;11508;50.856;4.380;2023-01-01T04:59:31;14.40;99.90
22682;DHT22;11508;50.856;4.380;2023-01-01T05:01:57;14.30;99.90
22682;DHT22;11508;50.856;4.380;2023-01-01T05:04:23;14.30;99.90
22682;DHT22;11508;50.856;4.380;2023-01-01T05:06:48;14.30;99.90
22682;DHT22;11508;50.856;4.380;2023-01-01T05:09:14;14.30;99.90
22682;DHT22;11508;50.856;4.380;2023-01-01T05:11:40;14.40;99.90
22682;DHT22;11508;50.856;4.380;2023-01-01T05:14:06;14.40;99.90
22682;DHT22;11508;50.856;4.380;2023-01-01T05:16:34;14.40;99.90
22682;DHT22;11508;50.856;4.380;2023-01-01T05:19:00;14.40;99.90
22682;DHT22;11508;50.856;4.380;2023-01-01T05:21:32;14.30;99.90
22682;DHT22;11508;50.856;4.380;2023-01-01T05:23:59;14.40;99.90
22682;DHT22;11508;50.856;4.380;2023-01-01T05:26:28;14.30;99.90
22682;DHT22;11508;50.856;4.380;2023-01-01T05:28:55;14.40;99.90
22682;DHT22;11508;50.856;4.380;2023-01-01T05:31:25;14.50;99.90
22682;DHT22;11508;50.856;4.380;2023-01-01T05:33:51;14.40;99.90
22682;DHT22;11508;50.856;4.380;2023-01-01T05:36:28;14.40;99.90
22682;DHT22;11508;50.856;4.380;2023-01-01T05:38:55;14.40;99.90
22682;DHT22;11508;50.856;4.380;2023-01-01T05:41:21;14.30;99.90
22682;DHT22;11508;50.856;4.380;2023-01-01T05:43:47;14.30;99.90
22682;DHT22;11508;50.856;4.380;2023-01-01T05:46:18;14.30;99.90
22682;DHT22;11508;50.856;4.380;2023-01-01T05:48:44;14.30;99.90
22682;DHT22;11508;50.856;4.380;2023-01-01T05:51:12;14.40;99.90
22682;DHT22;11508;50.856;4.380;2023-01-01T05:53:38;14.40;99.90
22682;DHT22;11508;50.856;4.380;2023-01-01T05:56:05;14.40;99.90
22682;DHT22;11508;50.856;4.380;2023-01-01T05:58:32;14.40;99.90
22682;DHT22;11508;50.856;4.380;2023-01-01T06:01:25;14.40;99.90
22682;DHT22;11508;50.856;4.380;2023-01-01T06:03:52;14.30;99.90
22682;DHT22;11508;50.856;4.380;2023-01-01T06:06:21;14.30;99.90
22682;DHT22;11508;50.856;4.380;2023-01-01T06:08:49;14.30;1.00
22682;DHT22;11508;50.856;4.380;2023-01-01T06:11:15;14.30;1.00
22682;DHT22;11508;50.856;4.380;2023-01-01T06:13:41;14.20;1.00
22682;DHT22;11508;50.856;4.380;2023-01-01T06:16:08;14.20;1.00
22682;DHT22;11508;50.856;4.380;2023-01-01T06:18:34;14.20;1.00
22682;DHT22;11508;50.856;4.380;2023-01-01T06:21:14;14.20;1.00
22682;DHT22;11508;50.856;4.380;2023-01-01T06:23:41;14.20;1.00
22682;DHT22;11508;50.856;4.380;2023-01-01T06:26:12;14.20;1.00
22682;DHT22;11508;50.856;4.380;2023-01-01T06:28:39;14.20;1.00
22682;DHT22;11508;50.856;4.380;2023-01-01T06:31:06;14.20;1.00
22682;DHT22;11508;50.856;4.380;2023-01-01T06:33:32;14.20;1.00
22682;DHT22;11508;50.856;4.380;2023-01-01T06:36:02;14.20;1.00
22682;DHT22;11508;50.856;4.380;2023-01-01T06:38:30;14.20;1.00
22682;DHT22;11508;50.856;4.380;2023-01-01T06:40:59;14.10;1.00
22682;DHT22;11508;50.856;4.380;2023-01-01T06:43:25;14.10;1.00
22682;DHT22;11508;50.856;4.380;2023-01-01T06:45:59;14.10;1.00
22682;DHT22;11508;50.856;4.380;2023-01-01T06:48:26;14.10;1.00
22682;DHT22;11508;50.856;4.380;2023-01-01T06:50:51;14.10;1.00
22682;DHT22;11508;50.856;4.380;2023-01-01T06:53:17;14.10;1.00
22682;DHT22;11508;50.856;4.380;2023-01-01T06:55:49;14.20;1.00
22682;DHT22;11508;50.856;4.380;2023-01-01T06:58:15;14.10;1.00
22682;DHT22;11508;50.856;4.380;2023-01-01T07:00:40;14.10;1.00
22682;DHT22;11508;50.856;4.380;2023-01-01T07:03:09;14.10;1.00
22682;DHT22;11508;50.856;4.380;2023-01-01T07:05:35;14.00;1.00
22682;DHT22;11508;50.856;4.380;2023-01-01T07:08:01;13.90;1.00
22682;DHT22;11508;50.856;4.380;2023-01-01T07:10:26;13.90;1.00
22682;DHT22;11508;50.856;4.380;2023-01-01T07:12:52;13.90;1.00
22682;DHT22;11508;50.856;4.380;2023-01-01T07:15:17;13.90;1.00
22682;DHT22;11508;50.856;4.380;2023-01-01T07:17:43;13.90;1.00
22682;DHT22;11508;50.856;4.380;2023-01-01T07:20:09;13.90;1.00
22682;DHT22;11508;50.856;4.380;2023-01-01T07:22:37;13.80;1.00
22682;DHT22;11508;50.856;4.380;2023-01-01T07:25:04;13.90;1.00
22682;DHT22;11508;50.856;4.380;2023-01-01T07:27:29;13.80;1.00
22682;DHT22;11508;50.856;4.380;2023-01-01T07:29:55;13.90;1.00
22682;DHT22;11508;50.856;4.380;2023-01-01T07:32:21;13.90;1.00
22682;DHT22;11508;50.856;4.380;2023-01-01T07:34:46;13.80;1.00
22682;DHT22;11508;50.856;4.380;2023-01-01T07:37:12;13.80;1.00
22682;DHT22;11508;50.856;4.380;2023-01-01T07:39:38;13.80;1.00
22682;DHT22;11508;50.856;4.380;2023-01-01T07:42:03;13.80;1.00
22682;DHT22;11508;50.856;4.380;2023-01-01T07:44:29;13.80;1.00
22682;DHT22;11508;50.856;4.380;2023-01-01T07:47:19;13.70;1.00
22682;DHT22;11508;50.856;4.380;2023-01-01T07:49:45;13.70;1.00
22682;DHT22;11508;50.856;4.380;2023-01-01T07:52:11;13.70;1.00
22682;DHT22;11508;50.856;4.380;2023-01-01T07:54:36;13.70;1.00
22682;DHT22;11508;50.856;4.380;2023-01-01T07:57:02;13.70;1.00
22682;DHT22;11508;50.856;4.380;2023-01-01T07:59:28;13.70;1.00
22682;DHT22;11508;50.856;4.380;2023-01-01T08:01:53;13.70;1.00
22682;DHT22;11508;50.856;4.380;2023-01-01T08:04:19;13.60;1.00
22682;DHT22;11508;50.856;4.380;2023-01-01T08:06:45;13.70;1.00
22682;DHT22;11508;50.856;4.380;2023-01-01T08:09:11;13.70;1.00
22682;DHT22;11508;50.856;4.380;2023-01-01T08:11:36;13.70;1.00
22682;DHT22;11508;50.856;4.380;2023-01-01T08:14:02;13.60;1.00
22682;DHT22;11508;50.856;4.380;2023-01-01T08:16:28;13.60;1.00
22682;DHT22;11508;50.856;4.380;2023-01-01T08:18:53;13.60;1.00
22682;DHT22;11508;50.856;4.380;2023-01-01T08:21:19;13.60;1.00
22682;DHT22;11508;50.856;4.380;2023-01-01T08:23:45;13.50;1.00
22682;DHT22;11508;50.856;4.380;2023-01-01T08:26:15;13.60;1.00
22682;DHT22;11508;50.856;4.380;2023-01-01T08:28:42;13.50;1.00
22682;DHT22;11508;50.856;4.380;2023-01-01T08:31:07;13.50;1.00
22682;DHT22;11508;50.856;4.380;2023-01-01T08:33:33;13.50;1.00
22682;DHT22;11508;50.856;4.380;2023-01-01T08:35:59;13.50;1.00
22682;DHT22;11508;50.856;4.380;2023-01-01T08:38:25;13.40;1.00
22682;DHT22;11508;50.856;4.380;2023-01-01T08:40:51;13.50;1.00
22682;DHT22;11508;50.856;4.380;2023-01-01T08:43:17;13.50;1.00
22682;DHT22;11508;50.856;4.380;2023-01-01T08:45:44;13.50;1.00
22682;DHT22;11508;50.856;4.380;2023-01-01T08:48:10;13.60;1.00
22682;DHT22;11508;50.856;4.380;2023-01-01T08:50:36;13.60;1.00
22682;DHT22;11508;50.856;4.380;2023-01-01T08:53:02;13.60;1.00
22682;DHT22;11508;50.856;4.380;2023-01-01T08:55:28;13.60;1.00
22682;DHT22;11508;50.856;4.380;2023-01-01T08:57:54;13.60;1.00
22682;DHT22;11508;50.856;4.380;2023-01-01T09:00:19;13.60;1.00
22682;DHT22;11508;50.856;4.380;2023-01-01T09:02:45;13.60;1.00
22682;DHT22;11508;50.856;4.380;2023-01-01T09:05:11;13.70;1.00
22682;DHT22;11508;50.856;4.380;2023-01-01T09:07:37;13.60;1.00
22682;DHT22;11508;50.856;4.380;2023-01-01T09:10:03;13.60;1.00
22682;DHT22;11508;50.856;4.380;2023-01-01T09:12:29;13.70;1.00
22682;DHT22;11508;50.856;4.380;2023-01-01T09:14:55;13.60;1.00
22682;DHT22;11508;50.856;4.380;2023-01-01T09:17:20;13.70;1.00
22682;DHT22;11508;50.856;4.380;2023-01-01T09:19:46;13.70;1.00
22682;DHT22;11508;50.856;4.380;2023-01-01T09:22:12;13.80;1.00
22682;DHT22;11508;50.856;4.380;2023-01-01T09:24:38;13.80;1.00
22682;DHT22;11508;50.856;4.380;2023-01-01T09:27:04;13.80;1.00
22682;DHT22;11508;50.856;4.380;2023-01-01T09:29:29;13.80;1.00
22682;DHT22;11508;50.856;4.380;2023-01-01T09:31:56;13.80;1.00
22682;DHT22;11508;50.856;4.380;2023-01-01T09:34:21;13.80;1.00
22682;DHT22;11508;50.856;4.380;2023-01-01T09:36:47;13.80;1.00
22682;DHT22;11508;50.856;4.380;2023-01-01T09:39:14;13.90;1.00
22682;DHT22;11508;50.856;4.380;2023-01-01T09:49:49;13.80;1.00
22682;DHT22;11508;50.856;4.380;2023-01-01T09:52:16;13.80;1.00
22682;DHT22;11508;50.856;4.380;2023-01-01T09:54:51;13.80;1.00
22682;DHT22;11508;50.856;4.380;2023-01-01T09:57:27;13.90;1.00
22682;DHT22;11508;50.856;4.380;2023-01-01T09:59:55;14.00;1.00
22682;DHT22;11508;50.856;4.380;2023-01-01T10:10:55;14.10;1.00
22682;DHT22;11508;50.856;4.380;2023-01-01T10:13:33;14.20;1.00
22682;DHT22;11508;50.856;4.380;2023-01-01T10:18:36;14.20;1.00
22682;DHT22;11508;50.856;4.380;2023-01-01T10:21:08;14.10;1.00
22682;DHT22;11508;50.856;4.380;2023-01-01T10:23:47;14.20;1.00
22682;DHT22;11508;50.856;4.380;2023-01-01T10:26:19;14.10;1.00
22682;DHT22;11508;50.856;4.380;2023-01-01T10:29:15;14.10;1.00
22682;DHT22;11508;50.856;4.380;2023-01-01T10:31:48;14.10;1.00
22682;DHT22;11508;50.856;4.380;2023-01-01T10:36:45;14.20;1.00
22682;DHT22;11508;50.856;4.380;2023-01-01T10:39:16;14.20;1.00
22682;DHT22;11508;50.856;4.380;2023-01-01T10:41:42;14.30;1.00
22682;DHT22;11508;50.856;4.380;2023-01-01T10:44:09;14.20;1.00
22682;DHT22;11508;50.856;4.380;2023-01-01T10:46:40;14.20;1.00
22682;DHT22;11508;50.856;4.380;2023-01-01T10:49:09;14.40;1.00
22682;DHT22;11508;50.856;4.380;2023-01-01T10:51:42;14.30;1.00
22682;DHT22;11508;50.856;4.380;2023-01-01T10:56:56;14.30;1.00
22682;DHT22;11508;50.856;4.380;2023-01-01T10:59:37;14.30;1.00
22682;DHT22;11508;50.856;4.380;2023-01-01T11:02:26;14.40;1.00
22682;DHT22;11508;50.856;4.380;2023-01-01T11:05:18;14.40;1.00
22682;DHT22;11508;50.856;4.380;2023-01-01T11:07:44;14.40;1.00
22682;DHT22;11508;50.856;4.380;2023-01-01T11:12:41;14.50;1.00
22682;DHT22;11508;50.856;4.380;2023-01-01T11:15:18;14.50;1.00
22682;DHT22;11508;50.856;4.380;2023-01-01T11:17:45;14.50;1.00
22682;DHT22;11508;50.856;4.380;2023-01-01T11:20:18;14.50;99.90
22682;DHT22;11508;50.856;4.380;2023-01-01T11:22:47;14.50;1.00
22682;DHT22;11508;50.856;4.380;2023-01-01T11:25:23;14.50;99.90
22682;DHT22;11508;50.856;4.380;2023-01-01T11:28:17;14.60;99.90
22682;DHT22;11508;50.856;4.380;2023-01-01T11:30:38;14.70;99.90
22682;DHT22;11508;50.856;4.380;2023-01-01T11:33:04;14.60;99.90
22682;DHT22;11508;50.856;4.380;2023-01-01T11:35:32;14.60;99.90
22682;DHT22;11508;50.856;4.380;2023-01-01T11:38:02;14.60;99.90
22682;DHT22;11508;50.856;4.380;2023-01-01T11:40:37;14.60;99.90
22682;DHT22;11508;50.856;4.380;2023-01-01T11:43:17;14.60;99.90
22682;DHT22;11508;50.856;4.380;2023-01-01T11:45:45;14.70;99.90
22682;DHT22;11508;50.856;4.380;2023-01-01T11:48:32;14.50;99.90
22682;DHT22;11508;50.856;4.380;2023-01-01T11:51:04;14.50;99.90
22682;DHT22;11508;50.856;4.380;2023-01-01T11:53:36;14.50;99.90
22682;DHT22;11508;50.856;4.380;2023-01-01T11:56:11;14.50;99.90
22682;DHT22;11508;50.856;4.380;2023-01-01T11:58:52;14.60;99.90
22682;DHT22;11508;50.856;4.380;2023-01-01T12:01:42;14.50;99.90
22682;DHT22;11508;50.856;4.380;2023-01-01T12:07:07;14.50;99.90
22682;DHT22;11508;50.856;4.380;2023-01-01T12:15:13;14.50;99.90
22682;DHT22;11508;50.856;4.380;2023-01-01T12:17:48;14.40;99.90
22682;DHT22;11508;50.856;4.380;2023-01-01T12:20:22;14.40;99.90
22682;DHT22;11508;50.856;4.380;2023-01-01T12:22:49;14.50;99.90
22682;DHT22;11508;50.856;4.380;2023-01-01T12:25:18;14.60;99.90
22682;DHT22;11508;50.856;4.380;2023-01-01T12:30:34;14.50;99.90
22682;DHT22;11508;50.856;4.380;2023-01-01T12:33:27;14.50;99.90
22682;DHT22;11508;50.856;4.380;2023-01-01T12:52:23;14.30;1.00
22682;DHT22;11508;50.856;4.380;2023-01-01T12:58:14;14.40;1.00
22682;DHT22;11508;50.856;4.380;2023-01-01T13:00:45;14.40;1.00
22682;DHT22;11508;50.856;4.380;2023-01-01T13:03:20;14.30;1.00
22682;DHT22;11508;50.856;4.380;2023-01-01T13:05:50;14.20;1.00
22682;DHT22;11508;50.856;4.380;2023-01-01T13:08:17;14.30;1.00
22682;DHT22;11508;50.856;4.380;2023-01-01T13:10:45;14.20;1.00
22682;DHT22;11508;50.856;4.380;2023-01-01T13:13:12;14.20;1.00
22682;DHT22;11508;50.856;4.380;2023-01-01T13:15:52;14.20;1.00
22682;DHT22;11508;50.856;4.380;2023-01-01T13:18:22;14.10;1.00
22682;DHT22;11508;50.856;4.380;2023-01-01T13:34:41;14.00;1.00
22682;DHT22;11508;50.856;4.380;2023-01-01T13:42:45;14.00;1.00
22682;DHT22;11508;50.856;4.380;2023-01-01T13:53:59;13.80;1.00
22682;DHT22;11508;50.856;4.380;2023-01-01T14:02:21;13.90;1.00
22682;DHT22;11508;50.856;4.380;2023-01-01T14:05:15;13.80;1.00
22682;DHT22;11508;50.856;4.380;2023-01-01T14:07:50;13.80;1.00
22682;DHT22;11508;50.856;4.380;2023-01-01T14:10:27;13.80;1.00
22682;DHT22;11508;50.856;4.380;2023-01-01T14:12:56;13.80;8.20
22682;DHT22;11508;50.856;4.380;2023-01-01T14:15:34;13.70;23.70
22682;DHT22;11508;50.856;4.380;2023-01-01T14:18:03;13.60;35.10
22682;DHT22;11508;50.856;4.380;2023-01-01T14:20:47;13.60;40.80
22682;DHT22;11508;50.856;4.380;2023-01-01T14:25:51;13.60;30.10
22682;DHT22;11508;50.856;4.380;2023-01-01T14:28:26;13.60;34.70
22682;DHT22;11508;50.856;4.380;2023-01-01T14:30:54;13.60;32.30
22682;DHT22;11508;50.856;4.380;2023-01-01T14:33:24;13.60;40.50
22682;DHT22;11508;50.856;4.380;2023-01-01T14:35:59;13.60;41.30
22682;DHT22;11508;50.856;4.380;2023-01-01T14:38:27;13.50;48.40
22682;DHT22;11508;50.856;4.380;2023-01-01T14:41:23;13.50;49.00
22682;DHT22;11508;50.856;4.380;2023-01-01T14:43:51;13.50;45.30
22682;DHT22;11508;50.856;4.380;2023-01-01T14:46:22;13.60;48.70
22682;DHT22;11508;50.856;4.380;2023-01-01T14:48:55;13.60;43.00
22682;DHT22;11508;50.856;4.380;2023-01-01T14:51:24;13.60;33.60
22682;DHT22;11508;50.856;4.380;2023-01-01T14:53:52;13.50;35.40
22682;DHT22;11508;50.856;4.380;2023-01-01T14:56:32;13.50;37.70
22682;DHT22;11508;50.856;4.380;2023-01-01T15:04:36;13.50;30.40
22682;DHT22;11508;50.856;4.380;2023-01-01T15:07:01;13.50;32.30
22682;DHT22;11508;50.856;4.380;2023-01-01T15:09:29;13.50;34.20
22682;DHT22;11508;50.856;4.380;2023-01-01T15:11:57;13.40;35.70
22682;DHT22;11508;50.856;4.380;2023-01-01T15:14:30;13.40;35.60
22682;DHT22;11508;50.856;4.380;2023-01-01T15:17:07;13.40;30.20
22682;DHT22;11508;50.856;4.380;2023-01-01T15:19:34;13.40;34.80
22682;DHT22;11508;50.856;4.380;2023-01-01T15:22:08;13.40;33.50
22682;DHT22;11508;50.856;4.380;2023-01-01T15:24:36;13.30;35.40
22682;DHT22;11508;50.856;4.380;2023-01-01T15:27:04;13.20;42.50
22682;DHT22;11508;50.856;4.380;2023-01-01T15:29:36;13.20;45.30
22682;DHT22;11508;50.856;4.380;2023-01-01T15:32:07;13.20;46.30
22682;DHT22;11508;50.856;4.380;2023-01-01T15:34:40;13.10;47.00
22682;DHT22;11508;50.856;4.380;2023-01-01T15:40:02;13.00;71.90
22682;DHT22;11508;50.856;4.380;2023-01-01T15:42:32;12.90;80.00
22682;DHT22;11508;50.856;4.380;2023-01-01T15:45:28;12.90;83.00
22682;DHT22;11508;50.856;4.380;2023-01-01T15:47:57;12.80;90.20
22682;DHT22;11508;50.856;4.380;2023-01-01T15:51:01;12.80;88.80
22682;DHT22;11508;50.856;4.380;2023-01-01T15:53:30;12.70;89.90
22682;DHT22;11508;50.856;4.380;2023-01-01T15:56:09;12.70;92.20
22682;DHT22;11508;50.856;4.380;2023-01-01T16:01:17;12.70;95.00
22682;DHT22;11508;50.856;4.380;2023-01-01T16:03:44;12.60;97.30
22682;DHT22;11508;50.856;4.380;2023-01-01T16:06:18;12.60;99.10
22682;DHT22;11508;50.856;4.380;2023-01-01T16:08:44;12.60;99.90
22682;DHT22;11508;50.856;4.380;2023-01-01T16:11:10;12.60;99.90
22682;DHT22;11508;50.856;4.380;2023-01-01T16:13:36;12.60;99.90
22682;DHT22;11508;50.856;4.380;2023-01-01T16:16:03;12.60;99.90
22682;DHT22;11508;50.856;4.380;2023-01-01T16:18:35;12.50;99.90
22682;DHT22;11508;50.856;4.380;2023-01-01T16:21:02;12.50;99.90
22682;DHT22;11508;50.856;4.380;2023-01-01T16:23:28;12.50;99.90
22682;DHT22;11508;50.856;4.380;2023-01-01T16:25:54;12.50;99.90
22682;DHT22;11508;50.856;4.380;2023-01-01T16:28:25;12.50;99.90
22682;DHT22;11508;50.856;4.380;2023-01-01T16:30:51;12.50;99.90
22682;DHT22;11508;50.856;4.380;2023-01-01T16:33:19;12.50;99.90
22682;DHT22;11508;50.856;4.380;2023-01-01T16:35:47;12.40;99.90
22682;DHT22;11508;50.856;4.380;2023-01-01T16:38:12;12.40;99.90
22682;DHT22;11508;50.856;4.380;2023-01-01T16:40:38;12.40;99.90
22682;DHT22;11508;50.856;4.380;2023-01-01T16:43:04;12.30;99.90
22682;DHT22;11508;50.856;4.380;2023-01-01T16:45:34;12.30;99.90
22682;DHT22;11508;50.856;4.380;2023-01-01T16:48:00;12.30;99.90
22682;DHT22;11508;50.856;4.380;2023-01-01T16:50:26;12.30;99.90
22682;DHT22;11508;50.856;4.380;2023-01-01T16:52:51;12.30;99.90
22682;DHT22;11508;50.856;4.380;2023-01-01T16:55:17;12.30;99.90
22682;DHT22;11508;50.856;4.380;2023-01-01T16:57:47;12.30;99.90
22682;DHT22;11508;50.856;4.380;2023-01-01T17:00:13;12.10;99.90
22682;DHT22;11508;50.856;4.380;2023-01-01T17:02:39;12.20;99.90
22682;DHT22;11508;50.856;4.380;2023-01-01T17:05:05;12.20;99.90
22682;DHT22;11508;50.856;4.380;2023-01-01T17:07:33;12.10;99.90
22682;DHT22;11508;50.856;4.380;2023-01-01T17:09:59;12.10;99.90
22682;DHT22;11508;50.856;4.380;2023-01-01T17:12:25;12.10;99.90
22682;DHT22;11508;50.856;4.380;2023-01-01T17:14:51;12.00;99.90
22682;DHT22;11508;50.856;4.380;2023-01-01T17:17:16;12.00;99.90
22682;DHT22;11508;50.856;4.380;2023-01-01T17:19:42;12.00;99.90
22682;DHT22;11508;50.856;4.380;2023-01-01T17:22:08;12.00;99.90
22682;DHT22;11508;50.856;4.380;2023-01-01T17:24:33;12.00;99.90
22682;DHT22;11508;50.856;4.380;2023-01-01T17:26:59;11.90;99.90
22682;DHT22;11508;50.856;4.380;2023-01-01T17:29:25;11.90;99.90
22682;DHT22;11508;50.856;4.380;2023-01-01T17:31:50;11.90;99.90
22682;DHT22;11508;50.856;4.380;2023-01-01T17:34:17;11.80;99.90
22682;DHT22;11508;50.856;4.380;2023-01-01T17:36:43;11.80;99.90
22682;DHT22;11508;50.856;4.380;2023-01-01T17:39:13;11.80;99.90
22682;DHT22;11508;50.856;4.380;2023-01-01T17:41:40;11.70;99.90
22682;DHT22;11508;50.856;4.380;2023-01-01T17:44:06;11.80;99.90
22682;DHT22;11508;50.856;4.380;2023-01-01T17:46:32;11.90;99.90
22682;DHT22;11508;50.856;4.380;2023-01-01T17:48:59;11.90;99.90
22682;DHT22;11508;50.856;4.380;2023-01-01T17:51:25;11.90;99.90
22682;DHT22;11508;50.856;4.380;2023-01-01T17:53:51;11.80;99.90
22682;DHT22;11508;50.856;4.380;2023-01-01T17:56:19;11.90;99.90
22682;DHT22;11508;50.856;4.380;2023-01-01T17:58:50;11.80;99.90
22682;DHT22;11508;50.856;4.380;2023-01-01T18:03:58;11.70;99.90
22682;DHT22;11508;50.856;4.380;2023-01-01T18:06:24;11.70;99.90
22682;DHT22;11508;50.856;4.380;2023-01-01T18:08:58;11.70;99.90
22682;DHT22;11508;50.856;4.380;2023-01-01T18:11:25;11.90;99.90
22682;DHT22;11508;50.856;4.380;2023-01-01T18:13:59;11.80;99.90
22682;DHT22;11508;50.856;4.380;2023-01-01T18:16:25;11.80;99.90
22682;DHT22;11508;50.856;4.380;2023-01-01T18:18:51;11.80;99.90
22682;DHT22;11508;50.856;4.380;2023-01-01T18:21:19;11.80;99.90